John Day, OR

12:39 PM PDT on September 03, 2015 (GMT -0700)
Grant County Regional | | Change Station
CLOSE
Current Station
Airport
Location: Grant County,
Elevation: 3698 ft
Nearby Weather Stations

Elev 3698 ft 44.40 °N, 118.96 °W | Updated 24 minutes ago

Clear
Clear
59 °F
Feels Like 59 °F
N
6
Wind Variable Wind from South

Today
High -- | Low -- °F
--% Chance of Precip.
Yesterday
High -- | Low -- °F
Precip. -- in
6:20 AM 7:28 PM
Waning Gibbous, 67% visible
Pressure 29.98 in
Visibility 10.0 miles
Clouds Clear
Dew Point 35 °F
Humidity 41%
Rainfall 0.00 in
Snow Depth Not available.
UV 9 out of 12
Pollen 5.20 out of 12
Air Quality Not available.
Flu Activity Not available.
METAR KGCD 031915Z AUTO 18005KT 10SM CLR 15/02 A2998 RMK AO2 T01520019
Pressure 29.98 in
Visibility 10.0 miles
Clouds Clear
Dew Point 35 °F
Humidity 41%
Rainfall 0.00 in
Snow Depth Not available.
UV 9 out of 12
Pollen 5.20 out of 12
Air Quality Not available.
Flu Activity Not available.
METAR KGCD 031915Z AUTO 18005KT 10SM CLR 15/02 A2998 RMK AO2 T01520019

10-Day Weather Forecast

×

Almanac

Astronomy

Sep. 03, 2015 Rise Set
Actual Time
Civil Twilight
Nautical Twilight
Astronomical Twilight
Moon
Length of Visible Light
Length of Day
Tomorrow will be .
, % of the Moon is Illuminated

Today's Extremes

State Highs State Lows

Community

WunderPhotos

Upload Photos

1,852,018 photos uploaded!

WunderBlogs® & News

Nearby

Air Quality

  Air Quality AQ Index Pollutant
Not available.

Snow Depth

Station Depth Elevation

Earthquake Activity

City Distance Mag. Time & Date
Minimum magnitude displayed is 2.5.

Coastal Water Temperatures

Place Temperature

Stations

Nearby Weather Stations

Station Location Temp. Windchill Dew Point Humidity Wind Precip. Elev Updated Type